sensor_id;sensor_type;location;lat;lon;timestamp;pressure;altitude;pressure_sealevel;temperature;humidity
32109;BME280;18624;50.042;8.436;2023-11-21T00:00:51;99781.06;;;9.46;100.00
32109;BME280;18624;50.042;8.436;2023-11-21T00:03:17;99776.22;;;9.37;100.00
32109;BME280;18624;50.042;8.436;2023-11-21T00:05:45;99756.94;;;9.28;100.00
32109;BME280;18624;50.042;8.436;2023-11-21T00:08:12;99795.91;;;9.45;100.00
32109;BME280;18624;50.042;8.436;2023-11-21T00:10:38;99792.63;;;9.50;100.00
32109;BME280;18624;50.042;8.436;2023-11-21T00:13:05;99770.75;;;9.37;100.00
32109;BME280;18624;50.042;8.436;2023-11-21T00:15:31;99756.38;;;9.20;100.00
32109;BME280;18624;50.042;8.436;2023-11-21T00:17:58;99768.22;;;9.30;100.00
32109;BME280;18624;50.042;8.436;2023-11-21T00:20:24;99760.75;;;9.30;100.00
32109;BME280;18624;50.042;8.436;2023-11-21T00:22:51;99737.34;;;9.17;100.00
32109;BME280;18624;50.042;8.436;2023-11-21T00:25:17;99735.13;;;9.11;100.00
32109;BME280;18624;50.042;8.436;2023-11-21T00:27:44;99745.63;;;9.13;100.00
32109;BME280;18624;50.042;8.436;2023-11-21T00:30:11;99769.59;;;9.22;100.00
32109;BME280;18624;50.042;8.436;2023-11-21T00:32:38;99790.75;;;9.34;100.00
32109;BME280;18624;50.042;8.436;2023-11-21T00:35:04;99778.03;;;9.27;100.00
32109;BME280;18624;50.042;8.436;2023-11-21T00:37:32;99756.47;;;9.17;100.00
32109;BME280;18624;50.042;8.436;2023-11-21T00:39:58;99797.22;;;9.40;100.00
32109;BME280;18624;50.042;8.436;2023-11-21T00:42:25;99774.88;;;9.29;100.00
32109;BME280;18624;50.042;8.436;2023-11-21T00:44:51;99759.88;;;9.21;100.00
32109;BME280;18624;50.042;8.436;2023-11-21T00:47:18;99756.56;;;9.13;100.00
32109;BME280;18624;50.042;8.436;2023-11-21T00:49:44;99757.00;;;9.11;100.00
32109;BME280;18624;50.042;8.436;2023-11-21T00:52:11;99745.84;;;9.06;100.00
32109;BME280;18624;50.042;8.436;2023-11-21T00:54:37;99742.75;;;9.04;100.00
32109;BME280;18624;50.042;8.436;2023-11-21T00:57:04;99748.91;;;9.08;100.00
32109;BME280;18624;50.042;8.436;2023-11-21T00:59:30;99755.81;;;9.12;100.00
32109;BME280;18624;50.042;8.436;2023-11-21T01:01:57;99746.69;;;9.03;100.00
32109;BME280;18624;50.042;8.436;2023-11-21T01:04:27;99800.31;;;9.42;100.00
32109;BME280;18624;50.042;8.436;2023-11-21T01:06:53;99727.44;;;8.94;100.00
32109;BME280;18624;50.042;8.436;2023-11-21T01:09:20;99767.63;;;9.22;100.00
32109;BME280;18624;50.042;8.436;2023-11-21T01:11:46;99745.41;;;9.07;100.00
32109;BME280;18624;50.042;8.436;2023-11-21T01:14:13;99708.25;;;8.81;100.00
32109;BME280;18624;50.042;8.436;2023-11-21T01:16:39;99744.19;;;9.08;100.00
32109;BME280;18624;50.042;8.436;2023-11-21T01:19:06;99781.03;;;9.33;100.00
32109;BME280;18624;50.042;8.436;2023-11-21T01:21:32;99802.50;;;9.47;100.00
32109;BME280;18624;50.042;8.436;2023-11-21T01:24:00;99803.69;;;9.46;100.00
32109;BME280;18624;50.042;8.436;2023-11-21T01:26:26;99772.78;;;9.20;100.00
32109;BME280;18624;50.042;8.436;2023-11-21T01:28:54;99798.88;;;9.37;100.00
32109;BME280;18624;50.042;8.436;2023-11-21T01:31:20;99786.91;;;9.31;100.00
32109;BME280;18624;50.042;8.436;2023-11-21T01:33:47;99811.91;;;9.46;100.00
32109;BME280;18624;50.042;8.436;2023-11-21T01:36:14;99818.69;;;9.54;100.00
32109;BME280;18624;50.042;8.436;2023-11-21T01:38:41;99755.91;;;9.09;100.00
32109;BME280;18624;50.042;8.436;2023-11-21T01:41:08;99780.13;;;9.23;100.00
32109;BME280;18624;50.042;8.436;2023-11-21T01:43:34;99805.63;;;9.33;100.00
32109;BME280;18624;50.042;8.436;2023-11-21T01:46:01;99812.41;;;9.28;100.00
32109;BME280;18624;50.042;8.436;2023-11-21T01:48:28;99752.47;;;8.92;100.00
32109;BME280;18624;50.042;8.436;2023-11-21T01:50:55;99795.88;;;9.19;100.00
32109;BME280;18624;50.042;8.436;2023-11-21T01:53:21;99763.09;;;9.03;100.00
32109;BME280;18624;50.042;8.436;2023-11-21T01:55:49;99787.97;;;9.21;100.00
32109;BME280;18624;50.042;8.436;2023-11-21T01:58:15;99780.94;;;9.07;100.00
32109;BME280;18624;50.042;8.436;2023-11-21T02:00:43;99753.22;;;8.93;100.00
32109;BME280;18624;50.042;8.436;2023-11-21T02:03:09;99748.09;;;8.95;100.00
32109;BME280;18624;50.042;8.436;2023-11-21T02:05:36;99770.00;;;9.07;100.00
32109;BME280;18624;50.042;8.436;2023-11-21T02:08:07;99793.00;;;9.23;100.00
32109;BME280;18624;50.042;8.436;2023-11-21T02:10:35;99841.78;;;9.53;100.00
32109;BME280;18624;50.042;8.436;2023-11-21T02:13:03;99834.56;;;9.47;100.00
32109;BME280;18624;50.042;8.436;2023-11-21T02:15:30;99810.00;;;9.30;100.00
32109;BME280;18624;50.042;8.436;2023-11-21T02:17:56;99833.88;;;9.43;100.00
32109;BME280;18624;50.042;8.436;2023-11-21T02:20:26;99797.72;;;9.22;100.00
32109;BME280;18624;50.042;8.436;2023-11-21T02:22:56;99838.59;;;9.42;100.00
32109;BME280;18624;50.042;8.436;2023-11-21T02:25:28;99836.28;;;9.41;100.00
32109;BME280;18624;50.042;8.436;2023-11-21T02:27:56;99836.72;;;9.39;100.00
32109;BME280;18624;50.042;8.436;2023-11-21T02:30:23;99810.63;;;9.22;100.00
32109;BME280;18624;50.042;8.436;2023-11-21T02:32:51;99760.00;;;8.88;100.00
32109;BME280;18624;50.042;8.436;2023-11-21T02:35:21;99809.28;;;9.13;100.00
32109;BME280;18624;50.042;8.436;2023-11-21T02:37:47;99820.13;;;9.17;100.00
32109;BME280;18624;50.042;8.436;2023-11-21T02:40:14;99808.94;;;9.11;100.00
32109;BME280;18624;50.042;8.436;2023-11-21T02:42:48;99818.44;;;9.07;100.00
32109;BME280;18624;50.042;8.436;2023-11-21T02:45:15;99842.03;;;9.30;100.00
32109;BME280;18624;50.042;8.436;2023-11-21T02:47:44;99831.81;;;9.18;100.00
32109;BME280;18624;50.042;8.436;2023-11-21T02:50:11;99839.00;;;9.28;100.00
32109;BME280;18624;50.042;8.436;2023-11-21T02:52:38;99821.50;;;9.09;100.00
32109;BME280;18624;50.042;8.436;2023-11-21T02:55:06;99780.84;;;8.82;100.00
32109;BME280;18624;50.042;8.436;2023-11-21T02:57:35;99832.72;;;9.15;100.00
32109;BME280;18624;50.042;8.436;2023-11-21T03:00:02;99798.31;;;9.01;100.00
32109;BME280;18624;50.042;8.436;2023-11-21T03:02:29;99793.88;;;8.91;100.00
32109;BME280;18624;50.042;8.436;2023-11-21T03:04:56;99807.44;;;9.10;100.00
32109;BME280;18624;50.042;8.436;2023-11-21T03:07:22;99823.88;;;9.23;100.00
32109;BME280;18624;50.042;8.436;2023-11-21T03:09:49;99795.81;;;9.06;100.00
32109;BME280;18624;50.042;8.436;2023-11-21T03:12:16;99838.69;;;9.38;100.00
32109;BME280;18624;50.042;8.436;2023-11-21T03:14:42;99802.63;;;9.15;100.00
32109;BME280;18624;50.042;8.436;2023-11-21T03:17:09;99807.13;;;9.21;100.00
32109;BME280;18624;50.042;8.436;2023-11-21T03:19:35;99826.50;;;9.27;100.00
32109;BME280;18624;50.042;8.436;2023-11-21T03:22:02;99835.28;;;9.34;100.00
32109;BME280;18624;50.042;8.436;2023-11-21T03:24:28;99804.78;;;9.07;100.00
32109;BME280;18624;50.042;8.436;2023-11-21T03:26:55;99821.66;;;9.18;100.00
32109;BME280;18624;50.042;8.436;2023-11-21T03:29:21;99851.38;;;9.32;100.00
32109;BME280;18624;50.042;8.436;2023-11-21T03:31:48;99843.94;;;9.33;100.00
32109;BME280;18624;50.042;8.436;2023-11-21T03:34:25;99847.84;;;9.32;100.00
32109;BME280;18624;50.042;8.436;2023-11-21T03:36:54;99857.69;;;9.29;100.00
32109;BME280;18624;50.042;8.436;2023-11-21T03:39:21;99872.44;;;9.32;100.00
32109;BME280;18624;50.042;8.436;2023-11-21T03:41:48;99853.81;;;9.14;100.00
32109;BME280;18624;50.042;8.436;2023-11-21T03:44:15;99839.56;;;9.06;100.00
32109;BME280;18624;50.042;8.436;2023-11-21T03:46:41;99852.34;;;9.09;100.00
32109;BME280;18624;50.042;8.436;2023-11-21T03:49:10;99871.13;;;9.24;100.00
32109;BME280;18624;50.042;8.436;2023-11-21T03:51:37;99841.94;;;9.04;100.00
32109;BME280;18624;50.042;8.436;2023-11-21T03:54:04;99800.16;;;8.75;100.00
32109;BME280;18624;50.042;8.436;2023-11-21T03:56:30;99775.59;;;8.58;100.00
32109;BME280;18624;50.042;8.436;2023-11-21T03:58:57;99842.22;;;8.94;100.00
32109;BME280;18624;50.042;8.436;2023-11-21T04:01:24;99853.41;;;8.99;100.00
32109;BME280;18624;50.042;8.436;2023-11-21T04:03:51;99827.72;;;8.80;100.00
32109;BME280;18624;50.042;8.436;2023-11-21T04:06:18;99855.72;;;9.01;100.00
32109;BME280;18624;50.042;8.436;2023-11-21T04:08:44;99885.97;;;9.23;100.00
32109;BME280;18624;50.042;8.436;2023-11-21T04:11:12;99867.13;;;9.12;100.00
32109;BME280;18624;50.042;8.436;2023-11-21T04:13:39;99898.47;;;9.24;100.00
32109;BME280;18624;50.042;8.436;2023-11-21T04:16:07;99899.16;;;9.28;100.00
32109;BME280;18624;50.042;8.436;2023-11-21T04:18:37;99886.88;;;9.20;100.00
32109;BME280;18624;50.042;8.436;2023-11-21T04:21:07;99873.56;;;9.05;100.00
32109;BME280;18624;50.042;8.436;2023-11-21T04:23:35;99904.63;;;9.28;100.00
32109;BME280;18624;50.042;8.436;2023-11-21T04:26:01;99893.19;;;9.17;100.00
32109;BME280;18624;50.042;8.436;2023-11-21T04:28:28;99877.00;;;8.93;100.00
32109;BME280;18624;50.042;8.436;2023-11-21T04:30:55;99917.88;;;9.13;100.00
32109;BME280;18624;50.042;8.436;2023-11-21T04:33:22;99877.16;;;8.86;100.00
32109;BME280;18624;50.042;8.436;2023-11-21T04:35:48;99850.88;;;8.76;100.00
32109;BME280;18624;50.042;8.436;2023-11-21T04:38:15;99917.09;;;9.12;100.00
32109;BME280;18624;50.042;8.436;2023-11-21T04:40:41;99900.91;;;9.05;100.00
32109;BME280;18624;50.042;8.436;2023-11-21T04:43:08;99888.25;;;8.95;100.00
32109;BME280;18624;50.042;8.436;2023-11-21T04:45:34;99914.97;;;9.04;100.00
32109;BME280;18624;50.042;8.436;2023-11-21T04:48:01;99927.19;;;9.16;100.00
32109;BME280;18624;50.042;8.436;2023-11-21T04:50:28;99925.84;;;9.07;100.00
32109;BME280;18624;50.042;8.436;2023-11-21T04:52:54;99925.16;;;9.03;100.00
32109;BME280;18624;50.042;8.436;2023-11-21T04:55:20;99892.97;;;8.78;100.00
32109;BME280;18624;50.042;8.436;2023-11-21T04:57:47;99932.25;;;9.01;100.00
32109;BME280;18624;50.042;8.436;2023-11-21T05:00:14;99903.63;;;8.73;100.00
32109;BME280;18624;50.042;8.436;2023-11-21T05:02:42;99937.72;;;9.01;100.00
32109;BME280;18624;50.042;8.436;2023-11-21T05:05:10;99925.16;;;8.87;100.00
32109;BME280;18624;50.042;8.436;2023-11-21T05:07:41;99958.03;;;9.16;100.00
32109;BME280;18624;50.042;8.436;2023-11-21T05:10:09;99954.19;;;9.13;100.00
32109;BME280;18624;50.042;8.436;2023-11-21T05:12:38;99965.91;;;9.14;100.00
32109;BME280;18624;50.042;8.436;2023-11-21T05:15:05;99965.91;;;9.14;100.00
32109;BME280;18624;50.042;8.436;2023-11-21T05:17:38;99943.03;;;8.92;100.00
32109;BME280;18624;50.042;8.436;2023-11-21T05:20:09;99974.59;;;9.09;100.00
32109;BME280;18624;50.042;8.436;2023-11-21T05:22:36;99960.25;;;9.05;100.00
32109;BME280;18624;50.042;8.436;2023-11-21T05:25:03;99930.56;;;8.74;100.00
32109;BME280;18624;50.042;8.436;2023-11-21T05:27:30;99969.31;;;9.02;100.00
32109;BME280;18624;50.042;8.436;2023-11-21T05:30:01;99960.19;;;8.92;100.00
32109;BME280;18624;50.042;8.436;2023-11-21T05:32:28;99988.63;;;9.11;100.00
32109;BME280;18624;50.042;8.436;2023-11-21T05:34:55;99955.66;;;8.85;100.00
32109;BME280;18624;50.042;8.436;2023-11-21T05:37:21;99974.53;;;8.96;100.00
32109;BME280;18624;50.042;8.436;2023-11-21T05:39:49;99955.72;;;8.82;100.00
32109;BME280;18624;50.042;8.436;2023-11-21T05:42:16;99973.09;;;8.92;100.00
32109;BME280;18624;50.042;8.436;2023-11-21T05:44:43;99942.06;;;8.66;100.00
32109;BME280;18624;50.042;8.436;2023-11-21T05:47:09;99961.38;;;8.75;100.00
32109;BME280;18624;50.042;8.436;2023-11-21T05:49:36;99981.69;;;8.90;100.00
32109;BME280;18624;50.042;8.436;2023-11-21T05:52:03;100002.38;;;9.07;100.00
32109;BME280;18624;50.042;8.436;2023-11-21T05:54:30;100007.41;;;9.09;100.00
32109;BME280;18624;50.042;8.436;2023-11-21T05:56:56;99980.50;;;8.91;100.00
32109;BME280;18624;50.042;8.436;2023-11-21T05:59:22;99983.34;;;8.87;100.00
32109;BME280;18624;50.042;8.436;2023-11-21T06:01:49;99987.25;;;8.86;100.00
32109;BME280;18624;50.042;8.436;2023-11-21T06:04:16;100013.00;;;9.05;100.00
32109;BME280;18624;50.042;8.436;2023-11-21T06:06:42;99979.91;;;8.83;100.00
32109;BME280;18624;50.042;8.436;2023-11-21T06:09:09;99995.97;;;8.98;100.00
32109;BME280;18624;50.042;8.436;2023-11-21T06:11:35;100001.00;;;8.99;100.00
32109;BME280;18624;50.042;8.436;2023-11-21T06:14:02;100005.19;;;9.04;100.00
32109;BME280;18624;50.042;8.436;2023-11-21T06:16:29;100030.41;;;9.11;100.00
32109;BME280;18624;50.042;8.436;2023-11-21T06:18:55;100035.53;;;9.09;100.00
32109;BME280;18624;50.042;8.436;2023-11-21T06:21:22;100045.28;;;9.10;100.00
32109;BME280;18624;50.042;8.436;2023-11-21T06:23:48;100009.88;;;8.87;100.00
32109;BME280;18624;50.042;8.436;2023-11-21T06:26:19;100003.91;;;8.76;100.00
32109;BME280;18624;50.042;8.436;2023-11-21T06:28:46;100040.47;;;8.98;100.00
32109;BME280;18624;50.042;8.436;2023-11-21T06:31:13;99970.06;;;8.53;100.00
32109;BME280;18624;50.042;8.436;2023-11-21T06:33:40;100064.56;;;9.03;100.00
32109;BME280;18624;50.042;8.436;2023-11-21T06:36:07;100053.03;;;8.96;100.00
32109;BME280;18624;50.042;8.436;2023-11-21T06:38:34;100048.34;;;8.96;100.00
32109;BME280;18624;50.042;8.436;2023-11-21T06:41:01;100032.59;;;8.84;100.00
32109;BME280;18624;50.042;8.436;2023-11-21T06:43:30;100060.06;;;8.97;100.00
32109;BME280;18624;50.042;8.436;2023-11-21T06:45:57;100025.31;;;8.77;100.00
32109;BME280;18624;50.042;8.436;2023-11-21T06:48:25;100075.00;;;9.08;100.00
32109;BME280;18624;50.042;8.436;2023-11-21T06:50:51;100053.97;;;8.89;100.00
32109;BME280;18624;50.042;8.436;2023-11-21T06:53:18;100061.72;;;8.91;100.00
32109;BME280;18624;50.042;8.436;2023-11-21T06:55:45;100058.41;;;8.83;100.00
32109;BME280;18624;50.042;8.436;2023-11-21T06:58:12;100024.94;;;8.59;100.00
32109;BME280;18624;50.042;8.436;2023-11-21T07:00:40;100082.13;;;8.86;100.00
32109;BME280;18624;50.042;8.436;2023-11-21T07:03:07;100033.63;;;8.54;100.00
32109;BME280;18624;50.042;8.436;2023-11-21T07:05:34;100051.34;;;8.66;100.00
32109;BME280;18624;50.042;8.436;2023-11-21T07:08:00;100102.41;;;8.88;100.00
32109;BME280;18624;50.042;8.436;2023-11-21T07:10:30;100061.78;;;8.71;100.00
32109;BME280;18624;50.042;8.436;2023-11-21T07:12:57;100051.75;;;8.64;100.00
32109;BME280;18624;50.042;8.436;2023-11-21T07:15:24;100072.28;;;8.72;100.00
32109;BME280;18624;50.042;8.436;2023-11-21T07:17:52;100111.56;;;8.98;100.00
32109;BME280;18624;50.042;8.436;2023-11-21T07:20:21;100072.78;;;8.67;100.00
32109;BME280;18624;50.042;8.436;2023-11-21T07:22:48;100110.44;;;8.96;100.00
32109;BME280;18624;50.042;8.436;2023-11-21T07:25:15;100067.97;;;8.55;100.00
32109;BME280;18624;50.042;8.436;2023-11-21T07:27:42;100118.72;;;8.92;100.00
32109;BME280;18624;50.042;8.436;2023-11-21T07:30:09;100097.50;;;8.80;100.00
32109;BME280;18624;50.042;8.436;2023-11-21T07:32:36;100075.19;;;8.65;100.00
32109;BME280;18624;50.042;8.436;2023-11-21T07:35:07;100102.72;;;8.91;100.00
32109;BME280;18624;50.042;8.436;2023-11-21T07:37:34;100104.00;;;8.86;100.00
32109;BME280;18624;50.042;8.436;2023-11-21T07:40:00;100134.81;;;9.06;100.00
32109;BME280;18624;50.042;8.436;2023-11-21T07:42:27;100147.56;;;9.13;100.00
32109;BME280;18624;50.042;8.436;2023-11-21T07:44:53;100070.13;;;8.63;100.00
32109;BME280;18624;50.042;8.436;2023-11-21T07:47:20;100108.25;;;8.87;100.00
32109;BME280;18624;50.042;8.436;2023-11-21T07:49:47;100138.56;;;9.12;100.00
32109;BME280;18624;50.042;8.436;2023-11-21T07:52:13;100117.34;;;9.00;100.00
32109;BME280;18624;50.042;8.436;2023-11-21T07:54:42;100087.22;;;8.68;100.00
32109;BME280;18624;50.042;8.436;2023-11-21T07:57:09;100122.16;;;8.96;100.00
32109;BME280;18624;50.042;8.436;2023-11-21T07:59:40;100109.13;;;8.84;100.00
32109;BME280;18624;50.042;8.436;2023-11-21T08:02:09;100175.38;;;9.28;100.00
32109;BME280;18624;50.042;8.436;2023-11-21T08:04:36;100158.84;;;9.15;100.00
32109;BME280;18624;50.042;8.436;2023-11-21T08:07:02;100154.97;;;9.12;100.00
32109;BME280;18624;50.042;8.436;2023-11-21T08:09:30;100178.44;;;9.30;100.00
32109;BME280;18624;50.042;8.436;2023-11-21T08:11:56;100097.44;;;8.63;100.00
32109;BME280;18624;50.042;8.436;2023-11-21T08:14:23;100177.56;;;9.17;100.00
32109;BME280;18624;50.042;8.436;2023-11-21T08:16:51;100147.59;;;8.93;100.00
32109;BME280;18624;50.042;8.436;2023-11-21T08:19:18;100189.06;;;9.28;100.00
32109;BME280;18624;50.042;8.436;2023-11-21T08:21:45;100206.13;;;9.32;100.00
32109;BME280;18624;50.042;8.436;2023-11-21T08:24:12;100137.00;;;8.95;100.00
32109;BME280;18624;50.042;8.436;2023-11-21T08:26:38;100191.28;;;9.33;100.00
32109;BME280;18624;50.042;8.436;2023-11-21T08:29:05;100180.91;;;9.24;100.00
32109;BME280;18624;50.042;8.436;2023-11-21T08:31:33;100178.31;;;9.17;100.00
32109;BME280;18624;50.042;8.436;2023-11-21T08:34:00;100210.69;;;9.38;100.00
32109;BME280;18624;50.042;8.436;2023-11-21T08:36:29;100170.28;;;9.10;100.00
32109;BME280;18624;50.042;8.436;2023-11-21T08:38:57;100149.75;;;9.02;100.00
32109;BME280;18624;50.042;8.436;2023-11-21T08:41:24;100196.75;;;9.33;100.00
32109;BME280;18624;50.042;8.436;2023-11-21T08:43:50;100210.69;;;9.38;100.00
32109;BME280;18624;50.042;8.436;2023-11-21T08:46:18;100217.97;;;9.45;100.00
32109;BME280;18624;50.042;8.436;2023-11-21T08:48:45;100204.59;;;9.31;100.00
32109;BME280;18624;50.042;8.436;2023-11-21T08:51:12;100196.06;;;9.29;100.00
32109;BME280;18624;50.042;8.436;2023-11-21T08:53:40;100189.97;;;9.21;100.00
32109;BME280;18624;50.042;8.436;2023-11-21T08:56:07;100221.63;;;9.38;100.00
32109;BME280;18624;50.042;8.436;2023-11-21T08:58:34;100200.41;;;9.26;100.00
32109;BME280;18624;50.042;8.436;2023-11-21T09:01:04;100213.56;;;9.31;100.00
32109;BME280;18624;50.042;8.436;2023-11-21T09:03:31;100246.31;;;9.55;100.00
32109;BME280;18624;50.042;8.436;2023-11-21T09:06:00;100249.38;;;9.57;100.00
32109;BME280;18624;50.042;8.436;2023-11-21T09:08:27;100219.72;;;9.35;100.00
32109;BME280;18624;50.042;8.436;2023-11-21T09:10:55;100199.00;;;9.18;100.00
32109;BME280;18624;50.042;8.436;2023-11-21T09:13:22;100209.28;;;9.30;100.00
32109;BME280;18624;50.042;8.436;2023-11-21T09:15:51;100248.53;;;9.60;100.00
32109;BME280;18624;50.042;8.436;2023-11-21T09:18:18;100244.13;;;9.46;100.00
32109;BME280;18624;50.042;8.436;2023-11-21T09:20:45;100227.09;;;9.38;100.00
32109;BME280;18624;50.042;8.436;2023-11-21T09:23:11;100242.50;;;9.49;100.00
32109;BME280;18624;50.042;8.436;2023-11-21T09:25:38;100274.56;;;9.68;100.00
32109;BME280;18624;50.042;8.436;2023-11-21T09:28:05;100254.50;;;9.55;100.00
32109;BME280;18624;50.042;8.436;2023-11-21T09:30:36;100219.59;;;9.23;100.00
32109;BME280;18624;50.042;8.436;2023-11-21T09:33:03;100276.94;;;9.66;100.00
32109;BME280;18624;50.042;8.436;2023-11-21T09:35:31;100209.81;;;9.25;100.00
32109;BME280;18624;50.042;8.436;2023-11-21T09:37:59;100264.78;;;9.67;100.00
32109;BME280;18624;50.042;8.436;2023-11-21T09:40:27;100264.09;;;9.63;100.00
32109;BME280;18624;50.042;8.436;2023-11-21T09:42:55;100238.66;;;9.46;100.00
32109;BME280;18624;50.042;8.436;2023-11-21T09:45:27;100291.16;;;9.77;100.00
32109;BME280;18624;50.042;8.436;2023-11-21T09:47:55;100288.13;;;9.72;100.00
32109;BME280;18624;50.042;8.436;2023-11-21T09:50:23;100257.31;;;9.51;100.00
32109;BME280;18624;50.042;8.436;2023-11-21T09:53:18;100293.03;;;9.80;100.00
32109;BME280;18624;50.042;8.436;2023-11-21T09:55:49;100266.91;;;9.59;100.00
32109;BME280;18624;50.042;8.436;2023-11-21T09:58:18;100251.09;;;9.51;100.00
32109;BME280;18624;50.042;8.436;2023-11-21T10:00:53;100263.81;;;9.57;100.00
32109;BME280;18624;50.042;8.436;2023-11-21T10:03:19;100297.47;;;9.74;100.00
32109;BME280;18624;50.042;8.436;2023-11-21T10:05:48;100297.28;;;9.65;100.00
32109;BME280;18624;50.042;8.436;2023-11-21T10:08:16;100279.72;;;9.46;100.00
32109;BME280;18624;50.042;8.436;2023-11-21T10:10:45;100311.59;;;9.73;100.00
32109;BME280;18624;50.042;8.436;2023-11-21T10:13:13;100251.97;;;9.28;100.00
32109;BME280;18624;50.042;8.436;2023-11-21T10:15:43;100269.25;;;9.41;100.00
32109;BME280;18624;50.042;8.436;2023-11-21T10:18:15;100247.66;;;9.27;100.00
32109;BME280;18624;50.042;8.436;2023-11-21T10:20:42;100238.41;;;9.21;100.00
32109;BME280;18624;50.042;8.436;2023-11-21T10:23:10;100285.88;;;9.50;100.00
32109;BME280;18624;50.042;8.436;2023-11-21T10:25:38;100317.25;;;9.82;100.00
32109;BME280;18624;50.042;8.436;2023-11-21T10:28:04;100300.16;;;9.58;100.00
32109;BME280;18624;50.042;8.436;2023-11-21T10:30:39;100313.72;;;9.65;100.00
32109;BME280;18624;50.042;8.436;2023-11-21T10:33:07;100324.06;;;9.74;100.00
32109;BME280;18624;50.042;8.436;2023-11-21T10:35:43;100321.28;;;9.77;100.00
32109;BME280;18624;50.042;8.436;2023-11-21T10:38:13;100321.16;;;9.81;100.00
32109;BME280;18624;50.042;8.436;2023-11-21T10:40:40;100269.59;;;9.43;100.00
32109;BME280;18624;50.042;8.436;2023-11-21T10:43:09;100258.22;;;9.45;100.00
32109;BME280;18624;50.042;8.436;2023-11-21T10:45:37;100314.78;;;9.87;100.00
32109;BME280;18624;50.042;8.436;2023-11-21T10:48:08;100275.19;;;9.56;100.00
32109;BME280;18624;50.042;8.436;2023-11-21T10:50:35;100280.09;;;9.64;100.00
32109;BME280;18624;50.042;8.436;2023-11-21T10:53:04;100330.56;;;10.00;100.00
32109;BME280;18624;50.042;8.436;2023-11-21T10:55:32;100313.50;;;9.92;100.00
32109;BME280;18624;50.042;8.436;2023-11-21T10:58:01;100315.41;;;9.95;100.00
32109;BME280;18624;50.042;8.436;2023-11-21T11:00:29;100289.69;;;9.73;100.00
32109;BME280;18624;50.042;8.436;2023-11-21T11:02:56;100325.09;;;10.00;100.00
32109;BME280;18624;50.042;8.436;2023-11-21T11:05:23;100321.53;;;9.99;100.00
32109;BME280;18624;50.042;8.436;2023-11-21T11:07:51;100295.25;;;9.85;100.00
32109;BME280;18624;50.042;8.436;2023-11-21T11:10:26;100328.47;;;10.04;100.00
32109;BME280;18624;50.042;8.436;2023-11-21T11:12:54;100326.34;;;9.95;100.00
32109;BME280;18624;50.042;8.436;2023-11-21T11:15:21;100301.94;;;9.84;100.00
32109;BME280;18624;50.042;8.436;2023-11-21T11:17:48;100299.91;;;9.88;100.00
32109;BME280;18624;50.042;8.436;2023-11-21T11:20:16;100292.19;;;9.83;100.00
32109;BME280;18624;50.042;8.436;2023-11-21T11:22:56;100307.44;;;10.01;100.00
32109;BME280;18624;50.042;8.436;2023-11-21T11:25:53;100322.78;;;10.14;100.00
32109;BME280;18624;50.042;8.436;2023-11-21T11:28:35;100274.50;;;9.88;100.00
32109;BME280;18624;50.042;8.436;2023-11-21T11:31:24;100269.78;;;9.88;100.00
32109;BME280;18624;50.042;8.436;2023-11-21T11:34:22;100285.94;;;9.99;100.00
32109;BME280;18624;50.042;8.436;2023-11-21T11:36:48;100291.28;;;10.06;100.00
32109;BME280;18624;50.042;8.436;2023-11-21T11:42:10;100303.94;;;10.17;100.00
32109;BME280;18624;50.042;8.436;2023-11-21T11:50:03;100314.09;;;10.36;100.00
32109;BME280;18624;50.042;8.436;2023-11-21T11:52:50;100307.66;;;10.26;100.00
32109;BME280;18624;50.042;8.436;2023-11-21T11:55:20;100312.53;;;10.35;100.00
32109;BME280;18624;50.042;8.436;2023-11-21T11:57:49;100313.22;;;10.39;100.00
32109;BME280;18624;50.042;8.436;2023-11-21T12:02:55;100321.38;;;10.43;100.00
32109;BME280;18624;50.042;8.436;2023-11-21T12:05:26;100309.47;;;10.33;100.00
32109;BME280;18624;50.042;8.436;2023-11-21T12:08:00;100320.44;;;10.49;100.00
32109;BME280;18624;50.042;8.436;2023-11-21T12:10:29;100326.56;;;10.53;100.00
32109;BME280;18624;50.042;8.436;2023-11-21T12:13:06;100331.56;;;10.58;100.00
32109;BME280;18624;50.042;8.436;2023-11-21T12:15:37;100329.16;;;10.60;100.00
32109;BME280;18624;50.042;8.436;2023-11-21T12:18:06;100298.31;;;10.40;100.00
32109;BME280;18624;50.042;8.436;2023-11-21T12:20:33;100308.03;;;10.45;100.00
32109;BME280;18624;50.042;8.436;2023-11-21T12:23:05;100319.06;;;10.41;100.00
32109;BME280;18624;50.042;8.436;2023-11-21T12:25:32;100323.34;;;10.42;100.00
32109;BME280;18624;50.042;8.436;2023-11-21T12:28:00;100346.56;;;10.54;100.00
32109;BME280;18624;50.042;8.436;2023-11-21T12:30:30;100343.81;;;10.54;100.00
32109;BME280;18624;50.042;8.436;2023-11-21T12:32:59;100346.19;;;10.52;100.00
32109;BME280;18624;50.042;8.436;2023-11-21T12:35:27;100355.19;;;10.52;100.00
32109;BME280;18624;50.042;8.436;2023-11-21T12:37:55;100301.97;;;10.17;100.00
32109;BME280;18624;50.042;8.436;2023-11-21T12:40:23;100302.84;;;10.14;100.00
32109;BME280;18624;50.042;8.436;2023-11-21T12:42:55;100352.09;;;10.50;100.00
32109;BME280;18624;50.042;8.436;2023-11-21T12:45:23;100340.38;;;10.33;100.00
32109;BME280;18624;50.042;8.436;2023-11-21T12:47:55;100371.38;;;10.47;100.00
32109;BME280;18624;50.042;8.436;2023-11-21T12:50:24;100341.00;;;10.21;100.00
32109;BME280;18624;50.042;8.436;2023-11-21T12:53:00;100314.13;;;10.00;100.00
32109;BME280;18624;50.042;8.436;2023-11-21T12:55:30;100295.81;;;9.97;100.00
32109;BME280;18624;50.042;8.436;2023-11-21T12:57:57;100358.78;;;10.33;100.00
32109;BME280;18624;50.042;8.436;2023-11-21T13:03:05;100343.41;;;10.19;100.00
32109;BME280;18624;50.042;8.436;2023-11-21T13:05:39;100337.69;;;10.13;100.00
32109;BME280;18624;50.042;8.436;2023-11-21T13:08:09;100318.03;;;9.99;100.00
32109;BME280;18624;50.042;8.436;2023-11-21T13:10:40;100375.56;;;10.35;100.00